Time;durP1;ratioP1;P1;durP2;ratioP2;P2;SDS_P1;SDS_P2;PMS_P1;PMS_P2;Temp;Humidity;BMP_temperature;BMP_pressure;BME280_temperature;BME280_humidity;BME280_pressure;Samples;Min_cycle;Max_cycle;Signal;HPM_P1;HPM_P2
2024/04/05 00:00:13;;;;;;;1.33;0.50;;;;;;;;;;4992096;28;20546;-37
2024/04/05 00:02:40;;;;;;;0.88;0.70;;;;;;;;;;4997574;28;20518;-37
2024/04/05 00:05:09;;;;;;;1.27;0.60;;;;;;;;;;5000244;28;20191;-37
2024/04/05 00:07:35;;;;;;;0.63;0.63;;;;;;;;;;4993496;28;20197;-37
2024/04/05 00:10:01;;;;;;;1.38;0.77;;;;;;;;;;4998352;28;20176;-37
2024/04/05 00:12:27;;;;;;;0.60;0.55;;;;;;;;;;4992993;28;20215;-36
2024/04/05 00:14:53;;;;;;;1.23;0.60;;;;;;;;;;4996346;28;20204;-37
2024/04/05 00:17:18;;;;;;;0.75;0.60;;;;;;;;;;4993068;28;20561;-37
2024/04/05 00:19:44;;;;;;;0.90;0.75;;;;;;;;;;4991837;28;20188;-37
2024/04/05 00:22:10;;;;;;;1.55;0.60;;;;;;;;;;4992657;28;20196;-37
2024/04/05 00:24:36;;;;;;;0.55;0.55;;;;;;;;;;4995715;28;20556;-37
2024/04/05 00:27:02;;;;;;;0.77;0.50;;;;;;;;;;4997409;28;20277;-37
2024/04/05 00:29:28;;;;;;;0.75;0.60;;;;;;;;;;4993112;28;20221;-37
2024/04/05 00:31:54;;;;;;;1.02;0.57;;;;;;;;;;4992377;28;20501;-37
2024/04/05 00:34:20;;;;;;;0.90;0.47;;;;;;;;;;4993874;28;20243;-37
2024/04/05 00:36:46;;;;;;;1.50;0.50;;;;;;;;;;4999416;28;20189;-37
2024/04/05 00:39:11;;;;;;;0.77;0.60;;;;;;;;;;4994439;28;20227;-37
2024/04/05 00:41:37;;;;;;;0.60;0.60;;;;;;;;;;4995552;28;20185;-37
2024/04/05 00:44:04;;;;;;;1.00;0.70;;;;;;;;;;4996766;28;20205;-37
2024/04/05 00:46:30;;;;;;;0.68;0.50;;;;;;;;;;4994051;28;20585;-37
2024/04/05 00:48:56;;;;;;;1.70;0.52;;;;;;;;;;4995479;28;20192;-36
2024/04/05 00:51:22;;;;;;;1.00;0.90;;;;;;;;;;4993536;28;20537;-36
2024/04/05 00:53:48;;;;;;;1.15;0.70;;;;;;;;;;4998577;28;20220;-36
2024/04/05 00:56:14;;;;;;;1.50;0.60;;;;;;;;;;4993830;28;20219;-36
2024/04/05 00:58:40;;;;;;;0.50;0.50;;;;;;;;;;4991866;28;20177;-37
2024/04/05 01:01:06;;;;;;;0.50;0.50;;;;;;;;;;4993562;28;20204;-37
2024/04/05 01:03:32;;;;;;;0.60;0.60;;;;;;;;;;4992765;28;20220;-37
2024/04/05 01:05:59;;;;;;;0.50;0.40;;;;;;;;;;4994375;28;20430;-37
2024/04/05 01:08:25;;;;;;;1.92;0.60;;;;;;;;;;4989629;28;20201;-37
2024/04/05 01:10:51;;;;;;;0.50;0.50;;;;;;;;;;4992538;28;20587;-37
2024/04/05 01:13:17;;;;;;;1.38;0.70;;;;;;;;;;4992637;28;20177;-36
2024/04/05 01:15:42;;;;;;;0.98;0.60;;;;;;;;;;4993544;28;20204;-37
2024/04/05 01:18:09;;;;;;;0.60;0.60;;;;;;;;;;4993324;28;20212;-36
2024/04/05 01:20:36;;;;;;;1.92;0.75;;;;;;;;;;4992484;28;20221;-36
2024/04/05 01:23:03;;;;;;;1.25;0.60;;;;;;;;;;4994079;28;20188;-36
2024/04/05 01:25:30;;;;;;;1.13;0.70;;;;;;;;;;4996229;28;20195;-37
2024/04/05 01:27:56;;;;;;;0.60;0.40;;;;;;;;;;4992699;28;20192;-37
2024/04/05 01:30:22;;;;;;;0.77;0.60;;;;;;;;;;4992724;28;20189;-37
2024/04/05 01:32:57;;;;;;;0.93;0.60;;;;;;;;;;4993275;28;20227;-36
2024/04/05 01:35:23;;;;;;;0.85;0.50;;;;;;;;;;4992645;28;20192;-36
2024/04/05 01:37:49;;;;;;;0.40;0.40;;;;;;;;;;4993397;28;20177;-36
2024/04/05 01:40:15;;;;;;;1.23;0.60;;;;;;;;;;4991382;28;20181;-37
2024/04/05 01:42:41;;;;;;;0.57;0.50;;;;;;;;;;4995036;28;20451;-37
2024/04/05 01:45:07;;;;;;;1.08;0.77;;;;;;;;;;4993555;28;20573;-37
2024/04/05 01:47:33;;;;;;;1.42;0.70;;;;;;;;;;4992520;28;20205;-36
2024/04/05 01:49:59;;;;;;;1.20;0.47;;;;;;;;;;4991601;28;20185;-37
2024/04/05 01:52:25;;;;;;;0.60;0.50;;;;;;;;;;4989888;28;20216;-36
2024/04/05 01:54:52;;;;;;;0.32;0.32;;;;;;;;;;4996522;28;20491;-36
2024/04/05 01:57:18;;;;;;;1.48;0.65;;;;;;;;;;4994412;28;20204;-36
2024/04/05 01:59:48;;;;;;;0.75;0.47;;;;;;;;;;4991821;28;20189;-37
2024/04/05 02:02:14;;;;;;;0.50;0.45;;;;;;;;;;4989818;28;20680;-37
2024/04/05 02:04:39;;;;;;;0.73;0.50;;;;;;;;;;4994894;28;20309;-36
2024/04/05 02:07:05;;;;;;;1.00;0.50;;;;;;;;;;4994969;28;20205;-36
2024/04/05 02:09:31;;;;;;;0.50;0.50;;;;;;;;;;5000220;28;20221;-37
2024/04/05 02:12:01;;;;;;;0.80;0.52;;;;;;;;;;4994527;28;20205;-37
2024/04/05 02:14:27;;;;;;;0.77;0.50;;;;;;;;;;4997434;28;20185;-37
2024/04/05 02:16:56;;;;;;;0.95;0.52;;;;;;;;;;4996658;28;20192;-37
2024/04/05 02:19:23;;;;;;;1.10;0.50;;;;;;;;;;4993376;28;20184;-37
2024/04/05 02:21:48;;;;;;;0.55;0.40;;;;;;;;;;4999392;28;20271;-36
2024/04/05 02:24:14;;;;;;;0.50;0.40;;;;;;;;;;4999515;28;20227;-37
2024/04/05 02:26:40;;;;;;;0.70;0.40;;;;;;;;;;4997470;28;20208;-37
2024/04/05 02:29:06;;;;;;;0.60;0.57;;;;;;;;;;5001001;28;20188;-36
2024/04/05 02:31:32;;;;;;;0.82;0.57;;;;;;;;;;4995758;28;20703;-36
2024/04/05 02:33:58;;;;;;;1.38;0.43;;;;;;;;;;4995218;28;20305;-37
2024/04/05 02:36:24;;;;;;;0.85;0.57;;;;;;;;;;4994735;28;20193;-37
2024/04/05 02:38:50;;;;;;;0.57;0.50;;;;;;;;;;4994399;28;20181;-37
2024/04/05 02:41:16;;;;;;;0.65;0.47;;;;;;;;;;4995618;28;20181;-37
2024/04/05 02:43:42;;;;;;;0.73;0.50;;;;;;;;;;4998642;28;20239;-37
2024/04/05 02:46:08;;;;;;;1.98;0.57;;;;;;;;;;4995276;28;20239;-36
2024/04/05 02:48:34;;;;;;;0.40;0.40;;;;;;;;;;4997688;28;20209;-36
2024/04/05 02:51:00;;;;;;;0.38;0.32;;;;;;;;;;4992703;28;20212;-37
2024/04/05 02:53:26;;;;;;;0.30;0.30;;;;;;;;;;4995228;28;20185;-37
2024/04/05 02:55:52;;;;;;;2.13;0.60;;;;;;;;;;4996127;28;20173;-37
2024/04/05 02:58:18;;;;;;;1.25;0.40;;;;;;;;;;4995295;28;20579;-37
2024/04/05 03:00:46;;;;;;;0.75;0.50;;;;;;;;;;4993860;28;20244;-36
2024/04/05 03:03:11;;;;;;;1.00;0.57;;;;;;;;;;4993486;28;20193;-36
2024/04/05 03:05:37;;;;;;;0.88;0.50;;;;;;;;;;4991716;28;20190;-37
2024/04/05 03:08:05;;;;;;;0.68;0.50;;;;;;;;;;4996901;28;20234;-37
2024/04/05 03:10:31;;;;;;;1.08;0.40;;;;;;;;;;4995085;28;20177;-37
2024/04/05 03:12:57;;;;;;;0.40;0.40;;;;;;;;;;4995871;28;20456;-37
2024/04/05 03:15:23;;;;;;;0.52;0.45;;;;;;;;;;4994396;28;20565;-37
2024/04/05 03:17:49;;;;;;;0.82;0.50;;;;;;;;;;5000243;28;20185;-36
2024/04/05 03:20:15;;;;;;;1.48;0.73;;;;;;;;;;4993211;28;20191;-36
2024/04/05 03:22:41;;;;;;;0.40;0.40;;;;;;;;;;4992479;28;20492;-36
2024/04/05 03:25:11;;;;;;;0.55;0.40;;;;;;;;;;4994774;28;20188;-36
2024/04/05 03:27:37;;;;;;;1.17;0.50;;;;;;;;;;4993962;28;20204;-36
2024/04/05 03:30:03;;;;;;;1.08;0.43;;;;;;;;;;4994483;28;20211;-36
2024/04/05 03:32:30;;;;;;;0.47;0.40;;;;;;;;;;4992599;28;20607;-36
2024/04/05 03:34:56;;;;;;;1.17;0.55;;;;;;;;;;4994916;28;20192;-36
2024/04/05 03:37:22;;;;;;;0.50;0.30;;;;;;;;;;4994110;28;20189;-36
2024/04/05 03:39:52;;;;;;;0.40;0.40;;;;;;;;;;4993378;28;20463;-36
2024/04/05 03:42:18;;;;;;;1.58;0.60;;;;;;;;;;4997670;28;20188;-36
2024/04/05 03:44:44;;;;;;;0.57;0.57;;;;;;;;;;4993769;28;20216;-36
2024/04/05 03:47:10;;;;;;;1.17;0.70;;;;;;;;;;4996599;28;20189;-36
2024/04/05 03:49:36;;;;;;;0.40;0.40;;;;;;;;;;4994670;28;20181;-37
2024/04/05 03:52:02;;;;;;;1.10;0.57;;;;;;;;;;4993029;28;20259;-36
2024/04/05 03:54:28;;;;;;;1.48;0.55;;;;;;;;;;5000933;28;20568;-36
2024/04/05 03:56:54;;;;;;;2.58;0.57;;;;;;;;;;4995137;28;20459;-37
2024/04/05 03:59:20;;;;;;;0.80;0.60;;;;;;;;;;4996740;28;20185;-37
2024/04/05 04:01:46;;;;;;;0.55;0.43;;;;;;;;;;4995754;28;20259;-36
2024/04/05 04:04:12;;;;;;;3.70;0.50;;;;;;;;;;4995230;28;20185;-36
2024/04/05 04:06:38;;;;;;;0.50;0.50;;;;;;;;;;5000272;28;20418;-36
2024/04/05 04:09:04;;;;;;;0.63;0.50;;;;;;;;;;4996975;28;20185;-37
2024/04/05 04:11:30;;;;;;;0.45;0.45;;;;;;;;;;5002598;28;20213;-37
2024/04/05 04:13:56;;;;;;;1.05;0.60;;;;;;;;;;4995398;28;20217;-37
2024/04/05 04:16:22;;;;;;;0.40;0.40;;;;;;;;;;4998457;28;20440;-37
2024/04/05 04:18:48;;;;;;;1.20;0.60;;;;;;;;;;4992945;28;20185;-37
2024/04/05 04:21:14;;;;;;;0.60;0.60;;;;;;;;;;4997554;28;20173;-37
2024/04/05 04:23:40;;;;;;;3.45;0.80;;;;;;;;;;4993960;28;20596;-37
2024/04/05 04:26:06;;;;;;;1.83;0.57;;;;;;;;;;4994195;28;20185;-37
2024/04/05 04:28:35;;;;;;;0.70;0.30;;;;;;;;;;4998723;28;20223;-37
2024/04/05 04:31:15;;;;;;;0.50;0.40;;;;;;;;;;4993197;28;20252;-37
2024/04/05 04:33:41;;;;;;;3.55;0.80;;;;;;;;;;4991131;28;20197;-37
2024/04/05 04:36:07;;;;;;;3.90;0.60;;;;;;;;;;4992573;28;20443;-37
2024/04/05 04:38:33;;;;;;;1.13;0.63;;;;;;;;;;4991004;28;20571;-36
2024/04/05 04:40:59;;;;;;;0.73;0.60;;;;;;;;;;4993729;28;20220;-36
2024/04/05 04:43:26;;;;;;;1.23;0.60;;;;;;;;;;4994680;28;20387;-53
2024/04/05 04:45:52;;;;;;;6.40;0.85;;;;;;;;;;4994580;28;20627;-53
2024/04/05 04:48:19;;;;;;;2.85;0.73;;;;;;;;;;4992816;28;20181;-54
2024/04/05 04:50:44;;;;;;;8.35;1.10;;;;;;;;;;4993780;28;20181;-53
2024/04/05 04:53:10;;;;;;;7.82;1.40;;;;;;;;;;4992448;28;20481;-54
2024/04/05 04:55:37;;;;;;;6.78;1.35;;;;;;;;;;4988344;28;20263;-54
2024/04/05 04:58:03;;;;;;;5.82;1.27;;;;;;;;;;4993348;28;20213;-54
2024/04/05 05:00:29;;;;;;;7.03;1.38;;;;;;;;;;4996519;28;20186;-54
2024/04/05 05:02:54;;;;;;;5.80;1.42;;;;;;;;;;4992935;28;20182;-54
2024/04/05 05:05:20;;;;;;;5.10;1.20;;;;;;;;;;4993143;28;20207;-54
2024/04/05 05:07:46;;;;;;;4.93;1.40;;;;;;;;;;4998122;28;20278;-54
2024/04/05 05:10:12;;;;;;;2.65;1.23;;;;;;;;;;4996546;28;20465;-54
2024/04/05 05:12:38;;;;;;;6.97;1.83;;;;;;;;;;5000255;28;20500;-54
2024/04/05 05:15:04;;;;;;;5.25;1.90;;;;;;;;;;4984420;28;20189;-56
2024/04/05 05:17:30;;;;;;;15.57;1.30;;;;;;;;;;4992310;28;20624;-68
2024/04/05 05:19:56;;;;;;;4.90;1.38;;;;;;;;;;4989942;28;20204;-46
2024/04/05 05:22:22;;;;;;;3.85;1.23;;;;;;;;;;4986868;28;20193;-46
2024/04/05 05:24:48;;;;;;;3.05;1.40;;;;;;;;;;4994128;28;20211;-39
2024/04/05 05:27:14;;;;;;;6.07;1.88;;;;;;;;;;4992614;28;20193;-46
2024/04/05 05:29:40;;;;;;;6.05;1.42;;;;;;;;;;4996145;28;20185;-45
2024/04/05 05:32:11;;;;;;;4.35;1.38;;;;;;;;;;4989933;28;20201;-49
2024/04/05 05:34:37;;;;;;;6.07;1.10;;;;;;;;;;4996301;28;20173;-49
2024/04/05 05:37:03;;;;;;;3.28;0.98;;;;;;;;;;4989263;28;20185;-48
2024/04/05 05:39:29;;;;;;;4.90;1.88;;;;;;;;;;4995139;28;20271;-50
2024/04/05 05:41:55;;;;;;;4.00;1.33;;;;;;;;;;4991310;28;20192;-45
2024/04/05 05:44:20;;;;;;;5.38;1.27;;;;;;;;;;4990301;28;20199;-50
2024/04/05 05:46:46;;;;;;;3.55;1.27;;;;;;;;;;4992334;28;20483;-46
2024/04/05 05:49:13;;;;;;;5.32;1.17;;;;;;;;;;4988296;28;20565;-40
2024/04/05 05:51:39;;;;;;;5.18;1.00;;;;;;;;;;4988698;28;20204;-50
2024/04/05 05:54:04;;;;;;;3.55;1.20;;;;;;;;;;4991920;28;20477;-49
2024/04/05 05:56:30;;;;;;;3.67;1.15;;;;;;;;;;4991125;28;21359;-50
2024/04/05 05:58:56;;;;;;;4.05;1.40;;;;;;;;;;4991260;28;20192;-49
2024/04/05 06:01:22;;;;;;;4.35;1.60;;;;;;;;;;4992273;28;20243;-49
2024/04/05 06:03:48;;;;;;;2.90;1.13;;;;;;;;;;4990323;28;20181;-48
2024/04/05 06:06:14;;;;;;;3.30;1.45;;;;;;;;;;4984043;28;20188;-48
2024/04/05 06:08:40;;;;;;;3.47;1.10;;;;;;;;;;4992584;28;20192;-41
2024/04/05 06:11:06;;;;;;;3.47;0.93;;;;;;;;;;4992972;28;20197;-41
2024/04/05 06:13:33;;;;;;;2.90;1.00;;;;;;;;;;4991752;28;20189;-41
2024/04/05 06:15:59;;;;;;;3.60;1.00;;;;;;;;;;4992946;28;20215;-41
2024/04/05 06:18:26;;;;;;;4.20;1.48;;;;;;;;;;4988494;28;20217;-42
2024/04/05 06:20:53;;;;;;;5.18;1.33;;;;;;;;;;4987457;28;20189;-42
2024/04/05 06:23:19;;;;;;;3.92;1.00;;;;;;;;;;4993933;28;20236;-42
2024/04/05 06:25:55;;;;;;;2.58;1.10;;;;;;;;;;4998526;28;20219;-42
2024/04/05 06:28:22;;;;;;;5.22;0.88;;;;;;;;;;4991475;28;20185;-41
2024/04/05 06:30:48;;;;;;;4.20;0.95;;;;;;;;;;4991632;28;20259;-42
2024/04/05 06:33:14;;;;;;;1.77;1.02;;;;;;;;;;4991266;28;20220;-41
2024/04/05 06:35:40;;;;;;;4.15;1.35;;;;;;;;;;4989546;28;20557;-42
2024/04/05 06:38:07;;;;;;;1.70;0.90;;;;;;;;;;4995487;28;20227;-41
2024/04/05 06:40:33;;;;;;;3.38;0.90;;;;;;;;;;4992779;28;20169;-41
2024/04/05 06:42:59;;;;;;;5.38;1.40;;;;;;;;;;4991957;28;20439;-42
2024/04/05 06:45:24;;;;;;;5.55;1.30;;;;;;;;;;4991113;28;20209;-41
2024/04/05 06:47:50;;;;;;;1.80;1.00;;;;;;;;;;4991508;28;20186;-41
2024/04/05 06:50:16;;;;;;;1.85;1.05;;;;;;;;;;4986354;28;20300;-41
2024/04/05 06:52:42;;;;;;;3.42;0.98;;;;;;;;;;4995045;28;20208;-40
2024/04/05 06:55:08;;;;;;;1.67;0.90;;;;;;;;;;5002041;28;20181;-40
2024/04/05 06:57:34;;;;;;;1.63;0.70;;;;;;;;;;4994879;28;20192;-40
2024/04/05 07:00:01;;;;;;;2.65;1.23;;;;;;;;;;4991627;28;20173;-40
2024/04/05 07:02:27;;;;;;;2.05;1.13;;;;;;;;;;4996352;28;20185;-40
2024/04/05 07:04:53;;;;;;;4.75;1.05;;;;;;;;;;4992650;28;20213;-40
2024/04/05 07:07:19;;;;;;;3.67;1.00;;;;;;;;;;4996155;28;20371;-40
2024/04/05 07:09:45;;;;;;;3.00;0.80;;;;;;;;;;4995564;28;20181;-40
2024/04/05 07:12:11;;;;;;;2.20;1.00;;;;;;;;;;4993427;28;20635;-40
2024/04/05 07:14:37;;;;;;;2.05;1.17;;;;;;;;;;4997152;28;20184;-40
2024/04/05 07:17:06;;;;;;;3.38;1.63;;;;;;;;;;4993270;28;20284;-40
2024/04/05 07:19:32;;;;;;;3.53;0.82;;;;;;;;;;4990674;28;20200;-40
2024/04/05 07:21:58;;;;;;;2.45;0.82;;;;;;;;;;4992827;28;20193;-40
2024/04/05 07:24:24;;;;;;;1.55;0.70;;;;;;;;;;4996495;28;20193;-40
2024/04/05 07:26:50;;;;;;;2.95;1.10;;;;;;;;;;4993211;28;20566;-40
2024/04/05 07:29:16;;;;;;;0.85;0.77;;;;;;;;;;4991967;28;20193;-40
2024/04/05 07:31:42;;;;;;;3.65;1.33;;;;;;;;;;4993666;28;20209;-40
2024/04/05 07:34:08;;;;;;;2.10;1.00;;;;;;;;;;4992244;28;20568;-40
2024/04/05 07:36:34;;;;;;;2.38;1.08;;;;;;;;;;4986185;28;20223;-40
2024/04/05 07:39:02;;;;;;;2.17;0.90;;;;;;;;;;4985532;28;20413;-40
2024/04/05 07:41:28;;;;;;;2.17;1.02;;;;;;;;;;4994789;28;20200;-40
2024/04/05 07:43:54;;;;;;;1.73;0.80;;;;;;;;;;4993470;28;20445;-40
2024/04/05 07:46:20;;;;;;;1.45;0.80;;;;;;;;;;4993447;28;20224;-40
2024/04/05 07:48:46;;;;;;;2.97;0.77;;;;;;;;;;4991751;28;20185;-39
2024/04/05 07:51:12;;;;;;;3.42;0.98;;;;;;;;;;4997900;28;20185;-40
2024/04/05 07:53:39;;;;;;;1.15;0.70;;;;;;;;;;4994849;28;20184;-40
2024/04/05 07:56:05;;;;;;;2.30;1.00;;;;;;;;;;4993127;28;20178;-40
2024/04/05 07:58:30;;;;;;;1.63;0.90;;;;;;;;;;4992293;28;20177;-40
2024/04/05 08:00:56;;;;;;;1.40;0.68;;;;;;;;;;4995415;28;20184;-40
2024/04/05 08:03:23;;;;;;;2.50;0.93;;;;;;;;;;4991236;28;20185;-40
2024/04/05 08:05:48;;;;;;;2.25;0.85;;;;;;;;;;4993294;28;20194;-40
2024/04/05 08:08:15;;;;;;;0.73;0.65;;;;;;;;;;4992358;28;20442;-40
2024/04/05 08:10:40;;;;;;;1.48;0.88;;;;;;;;;;4992938;28;20518;-40
2024/04/05 08:13:07;;;;;;;1.83;0.77;;;;;;;;;;4992563;28;20469;-40
2024/04/05 08:15:33;;;;;;;0.98;0.80;;;;;;;;;;4994427;28;20235;-40
2024/04/05 08:17:59;;;;;;;2.47;0.82;;;;;;;;;;4994229;28;20188;-40
2024/04/05 08:20:25;;;;;;;1.40;0.75;;;;;;;;;;4994838;28;20195;-40
2024/04/05 08:22:51;;;;;;;1.65;0.80;;;;;;;;;;4994509;28;20181;-40
2024/04/05 08:25:17;;;;;;;1.20;0.88;;;;;;;;;;5000240;28;20207;-40
2024/04/05 08:27:49;;;;;;;1.83;0.85;;;;;;;;;;4993418;28;20275;-40
2024/04/05 08:30:18;;;;;;;1.30;0.80;;;;;;;;;;4997072;28;20191;-40
2024/04/05 08:32:44;;;;;;;2.63;0.70;;;;;;;;;;4996645;28;20208;-40
2024/04/05 08:35:10;;;;;;;1.65;0.88;;;;;;;;;;4993458;28;20196;-40
2024/04/05 08:37:39;;;;;;;1.50;0.82;;;;;;;;;;4994707;28;20181;-40
2024/04/05 08:40:07;;;;;;;2.80;0.88;;;;;;;;;;4995606;28;20184;-40
2024/04/05 08:42:34;;;;;;;1.35;1.00;;;;;;;;;;4993399;28;20185;-40
2024/04/05 08:45:01;;;;;;;1.75;0.80;;;;;;;;;;4998483;28;20238;-40
2024/04/05 08:47:27;;;;;;;1.52;0.90;;;;;;;;;;4992944;28;20233;-40
2024/04/05 08:49:54;;;;;;;2.72;1.00;;;;;;;;;;4993090;28;20193;-40
2024/04/05 08:52:21;;;;;;;2.17;0.93;;;;;;;;;;4999454;28;20216;-40
2024/04/05 08:54:48;;;;;;;1.42;0.60;;;;;;;;;;4992325;28;20185;-40
2024/04/05 08:57:15;;;;;;;1.45;0.77;;;;;;;;;;4989438;28;20177;-40
2024/04/05 08:59:44;;;;;;;1.65;1.10;;;;;;;;;;4993141;28;21483;-40
2024/04/05 09:02:11;;;;;;;1.02;0.60;;;;;;;;;;4991743;28;20196;-40
2024/04/05 09:04:36;;;;;;;2.05;0.75;;;;;;;;;;4994664;28;20199;-40
2024/04/05 09:07:03;;;;;;;1.48;0.82;;;;;;;;;;4993271;28;20275;-40
2024/04/05 09:09:31;;;;;;;1.65;0.80;;;;;;;;;;4993419;28;20184;-40
2024/04/05 09:12:21;;;;;;;1.40;0.70;;;;;;;;;;4991655;28;20472;-40
2024/04/05 09:14:47;;;;;;;1.70;0.70;;;;;;;;;;5000398;28;20467;-40
2024/04/05 09:17:16;;;;;;;2.05;1.13;;;;;;;;;;4993791;28;20200;-40
2024/04/05 09:19:43;;;;;;;0.60;0.60;;;;;;;;;;4993751;28;20181;-40
2024/04/05 09:22:18;;;;;;;1.17;0.80;;;;;;;;;;4995493;28;20191;-48
2024/04/05 09:24:45;;;;;;;2.83;1.08;;;;;;;;;;4993049;28;20239;-46
2024/04/05 09:27:11;;;;;;;4.13;0.90;;;;;;;;;;4992291;28;20181;-44
2024/04/05 09:29:37;;;;;;;4.88;0.90;;;;;;;;;;4990999;28;20188;-46
2024/04/05 09:32:04;;;;;;;4.55;1.00;;;;;;;;;;4993425;28;20220;-46
2024/04/05 09:34:32;;;;;;;2.08;0.75;;;;;;;;;;4990386;28;20543;-47
2024/04/05 09:36:59;;;;;;;3.85;1.15;;;;;;;;;;4990827;28;20185;-39
2024/04/05 09:39:26;;;;;;;1.50;0.80;;;;;;;;;;4989917;28;20177;-38
2024/04/05 09:41:56;;;;;;;3.67;0.95;;;;;;;;;;4994726;28;20553;-56
2024/04/05 09:44:23;;;;;;;3.13;1.10;;;;;;;;;;4990616;28;20276;-49
2024/04/05 09:46:49;;;;;;;5.30;1.20;;;;;;;;;;4989684;28;20189;-51
2024/04/05 09:49:15;;;;;;;3.65;1.10;;;;;;;;;;4990734;28;20589;-39
2024/04/05 09:51:45;;;;;;;7.05;1.27;;;;;;;;;;4998845;28;20571;-37
2024/04/05 09:54:12;;;;;;;5.00;1.00;;;;;;;;;;4992529;28;20169;-41
2024/04/05 09:56:39;;;;;;;5.53;1.20;;;;;;;;;;4995057;28;20185;-52
2024/04/05 09:59:06;;;;;;;4.60;1.10;;;;;;;;;;4997127;28;20184;-50
2024/04/05 10:01:32;;;;;;;5.30;1.30;;;;;;;;;;4988346;28;20447;-48
2024/04/05 10:03:59;;;;;;;2.35;0.75;;;;;;;;;;4991013;28;20193;-48
2024/04/05 10:06:34;;;;;;;2.33;0.85;;;;;;;;;;4994599;28;20180;-50
2024/04/05 10:09:00;;;;;;;4.10;0.93;;;;;;;;;;4996343;28;20188;-48
2024/04/05 10:11:27;;;;;;;6.22;1.23;;;;;;;;;;4991583;28;20204;-48
2024/04/05 10:14:00;;;;;;;2.38;0.80;;;;;;;;;;4991550;28;20177;-46
2024/04/05 10:16:26;;;;;;;1.55;0.90;;;;;;;;;;4995143;28;20604;-49
2024/04/05 10:18:52;;;;;;;1.67;1.00;;;;;;;;;;4992373;28;20179;-45
2024/04/05 10:21:19;;;;;;;2.97;0.90;;;;;;;;;;4990935;28;20185;-38
2024/04/05 10:23:45;;;;;;;1.35;0.93;;;;;;;;;;4992485;28;20284;-38
2024/04/05 10:26:13;;;;;;;3.42;0.88;;;;;;;;;;4995445;28;20559;-38
2024/04/05 10:28:39;;;;;;;3.30;1.20;;;;;;;;;;5000410;28;20211;-39
2024/04/05 10:31:11;;;;;;;1.70;0.75;;;;;;;;;;4994786;28;20181;-38
2024/04/05 10:33:43;;;;;;;2.00;0.82;;;;;;;;;;4999571;28;20272;-43
2024/04/05 10:36:09;;;;;;;7.88;1.35;;;;;;;;;;4997101;28;20177;-40
2024/04/05 10:38:35;;;;;;;8.00;1.35;;;;;;;;;;5001383;28;20417;-41
2024/04/05 10:41:02;;;;;;;6.15;1.45;;;;;;;;;;4997791;28;20484;-41
2024/04/05 10:43:28;;;;;;;8.27;1.55;;;;;;;;;;4998727;28;20182;-40
2024/04/05 10:46:03;;;;;;;7.10;1.13;;;;;;;;;;5001475;28;20197;-40
2024/04/05 10:48:31;;;;;;;8.18;1.17;;;;;;;;;;4993228;28;20576;-40
2024/04/05 10:50:58;;;;;;;8.23;1.65;;;;;;;;;;4997014;28;20212;-40
2024/04/05 10:53:23;;;;;;;4.10;1.80;;;;;;;;;;4999705;28;20235;-40
2024/04/05 10:55:53;;;;;;;4.22;1.48;;;;;;;;;;4997205;28;20275;-40
2024/04/05 10:58:19;;;;;;;10.57;1.40;;;;;;;;;;4995321;28;20327;-40
2024/04/05 11:00:45;;;;;;;2.60;0.90;;;;;;;;;;4989973;28;20541;-40
2024/04/05 11:03:16;;;;;;;6.28;1.00;;;;;;;;;;4992781;28;20192;-40
2024/04/05 11:05:44;;;;;;;3.75;0.90;;;;;;;;;;4994698;28;20173;-40
2024/04/05 11:08:13;;;;;;;5.30;1.20;;;;;;;;;;4996843;28;20184;-48
2024/04/05 11:10:39;;;;;;;5.15;1.27;;;;;;;;;;4994182;28;20200;-41
2024/04/05 11:13:19;;;;;;;6.55;2.35;;;;;;;;;;4995997;28;20209;-40
2024/04/05 11:15:45;;;;;;;4.30;1.35;;;;;;;;;;4993731;28;20299;-40
2024/04/05 11:18:11;;;;;;;6.82;1.60;;;;;;;;;;4999842;28;20186;-40
2024/04/05 11:20:41;;;;;;;7.43;1.40;;;;;;;;;;4993569;28;20223;-41
2024/04/05 11:23:12;;;;;;;8.80;1.60;;;;;;;;;;4996808;28;20177;-40
2024/04/05 11:25:38;;;;;;;5.57;1.20;;;;;;;;;;4995353;28;20560;-40
2024/04/05 11:28:14;;;;;;;7.72;1.25;;;;;;;;;;4994911;28;20196;-40
2024/04/05 11:30:41;;;;;;;7.20;1.90;;;;;;;;;;4994759;28;20211;-40
2024/04/05 11:33:07;;;;;;;8.35;1.70;;;;;;;;;;4994402;28;20209;-40
2024/04/05 11:35:33;;;;;;;6.13;1.55;;;;;;;;;;4994936;28;20631;-40
2024/04/05 11:37:59;;;;;;;7.18;1.58;;;;;;;;;;4995394;28;20185;-41
2024/04/05 11:40:25;;;;;;;8.88;2.20;;;;;;;;;;4993772;28;20185;-40
2024/04/05 11:42:51;;;;;;;5.97;1.92;;;;;;;;;;4996069;28;20172;-40
2024/04/05 11:45:18;;;;;;;7.28;1.90;;;;;;;;;;4995816;28;20256;-41
2024/04/05 11:47:46;;;;;;;9.07;2.17;;;;;;;;;;4995638;28;20181;-41
2024/04/05 11:50:13;;;;;;;6.75;1.67;;;;;;;;;;4992529;28;20267;-40
2024/04/05 11:52:39;;;;;;;7.90;1.88;;;;;;;;;;4994163;28;20209;-41
2024/04/05 11:55:05;;;;;;;7.72;1.75;;;;;;;;;;5001883;28;20556;-40
2024/04/05 11:57:31;;;;;;;3.58;2.15;;;;;;;;;;4995053;28;20188;-40
2024/04/05 11:59:57;;;;;;;9.25;1.85;;;;;;;;;;4993551;28;20185;-41
2024/04/05 12:02:23;;;;;;;5.50;1.85;;;;;;;;;;4997177;28;20193;-41
2024/04/05 12:04:49;;;;;;;4.57;1.65;;;;;;;;;;5001240;28;20196;-40
2024/04/05 12:07:16;;;;;;;8.40;2.05;;;;;;;;;;4995668;28;20208;-41
2024/04/05 12:09:42;;;;;;;3.17;1.42;;;;;;;;;;5000949;28;20623;-41
2024/04/05 12:12:09;;;;;;;5.00;2.10;;;;;;;;;;4995527;28;20207;-41
2024/04/05 12:14:34;;;;;;;6.03;1.67;;;;;;;;;;4994792;28;20173;-41
2024/04/05 12:17:01;;;;;;;6.10;1.50;;;;;;;;;;4996829;28;20745;-40
2024/04/05 12:19:27;;;;;;;5.40;2.65;;;;;;;;;;4996162;28;20193;-41
2024/04/05 12:21:53;;;;;;;7.45;1.67;;;;;;;;;;4993331;28;20184;-41
2024/04/05 12:24:19;;;;;;;4.85;1.83;;;;;;;;;;4994709;28;20201;-40
2024/04/05 12:26:45;;;;;;;4.82;1.55;;;;;;;;;;4994289;28;20185;-41
2024/04/05 12:29:11;;;;;;;2.65;1.27;;;;;;;;;;5000013;28;20269;-40
2024/04/05 12:31:38;;;;;;;3.78;1.27;;;;;;;;;;5000946;28;20620;-40
2024/04/05 12:34:04;;;;;;;3.90;1.38;;;;;;;;;;4993781;28;20185;-40
2024/04/05 12:36:30;;;;;;;5.22;1.50;;;;;;;;;;4999581;28;20204;-40
2024/04/05 12:38:56;;;;;;;3.35;1.23;;;;;;;;;;4994628;28;20459;-40
2024/04/05 12:41:23;;;;;;;4.32;1.25;;;;;;;;;;4995680;28;20581;-40
2024/04/05 12:43:49;;;;;;;6.25;1.33;;;;;;;;;;4993914;28;20201;-40
2024/04/05 12:46:15;;;;;;;5.47;1.40;;;;;;;;;;4995063;28;20189;-41
2024/04/05 12:48:42;;;;;;;4.18;1.70;;;;;;;;;;4995358;28;20457;-41
2024/04/05 12:51:10;;;;;;;3.92;1.45;;;;;;;;;;4992320;28;20477;-41
2024/04/05 12:53:36;;;;;;;4.18;1.38;;;;;;;;;;4994522;28;20196;-40
2024/04/05 12:56:03;;;;;;;2.72;1.15;;;;;;;;;;4991222;28;20276;-40
2024/04/05 12:58:30;;;;;;;3.97;1.30;;;;;;;;;;4990529;28;20189;-41
2024/04/05 13:00:58;;;;;;;2.85;0.98;;;;;;;;;;4996545;28;20288;-41
2024/04/05 13:03:24;;;;;;;2.35;1.15;;;;;;;;;;4992799;28;20196;-41
2024/04/05 13:05:50;;;;;;;2.00;0.98;;;;;;;;;;4993318;28;20188;-40
2024/04/05 13:08:17;;;;;;;3.50;1.23;;;;;;;;;;4993687;28;20224;-40
2024/04/05 13:10:42;;;;;;;4.13;1.45;;;;;;;;;;4998739;28;20228;-40
2024/04/05 13:13:09;;;;;;;3.88;1.05;;;;;;;;;;4996778;28;20619;-40
2024/04/05 13:15:35;;;;;;;2.70;0.98;;;;;;;;;;4997778;28;20255;-40
2024/04/05 13:18:01;;;;;;;3.75;1.20;;;;;;;;;;4991328;28;20185;-41
2024/04/05 13:20:27;;;;;;;2.58;1.00;;;;;;;;;;4995932;28;20537;-40
2024/04/05 13:22:53;;;;;;;3.15;1.17;;;;;;;;;;4993047;28;20195;-40
2024/04/05 13:25:20;;;;;;;2.60;0.93;;;;;;;;;;4995577;28;20196;-40
2024/04/05 13:27:46;;;;;;;2.65;1.17;;;;;;;;;;4993157;28;20189;-40
2024/04/05 13:30:12;;;;;;;4.82;0.95;;;;;;;;;;4991903;28;20216;-40
2024/04/05 13:32:38;;;;;;;2.88;0.82;;;;;;;;;;4992165;28;20209;-40
2024/04/05 13:35:04;;;;;;;1.70;0.93;;;;;;;;;;4992206;28;20201;-40
2024/04/05 13:37:30;;;;;;;2.47;1.23;;;;;;;;;;4993228;28;20460;-40
2024/04/05 13:39:56;;;;;;;2.78;1.00;;;;;;;;;;4990778;28;20181;-40
2024/04/05 13:42:22;;;;;;;2.08;0.90;;;;;;;;;;4992445;28;20200;-40
2024/04/05 13:44:52;;;;;;;1.20;0.90;;;;;;;;;;4991765;28;20200;-41
2024/04/05 13:47:20;;;;;;;2.22;1.00;;;;;;;;;;4992459;28;20181;-40
2024/04/05 13:49:45;;;;;;;3.00;0.80;;;;;;;;;;4992138;28;20772;-40
2024/04/05 13:52:11;;;;;;;2.75;1.08;;;;;;;;;;4991071;28;20201;-40
2024/04/05 13:54:37;;;;;;;2.85;1.35;;;;;;;;;;4993874;28;20187;-40
2024/04/05 13:57:03;;;;;;;3.67;1.10;;;;;;;;;;4997425;28;20184;-41
2024/04/05 13:59:29;;;;;;;2.42;0.90;;;;;;;;;;4992988;28;20188;-40
2024/04/05 14:01:55;;;;;;;5.88;1.48;;;;;;;;;;4981097;28;20184;-51
2024/04/05 14:04:21;;;;;;;4.18;1.13;;;;;;;;;;4999088;28;20200;-38
2024/04/05 14:06:47;;;;;;;2.08;1.00;;;;;;;;;;4999609;28;20208;-44
2024/04/05 14:09:13;;;;;;;5.35;1.15;;;;;;;;;;4994338;28;20188;-47
2024/04/05 14:11:41;;;;;;;3.17;0.80;;;;;;;;;;4996033;28;20263;-48
2024/04/05 14:14:08;;;;;;;1.83;0.98;;;;;;;;;;4993846;28;20193;-38
2024/04/05 14:16:34;;;;;;;3.40;0.90;;;;;;;;;;4995980;28;20180;-43
2024/04/05 14:19:01;;;;;;;2.70;0.95;;;;;;;;;;4994708;28;20559;-43
2024/04/05 14:21:27;;;;;;;1.63;0.95;;;;;;;;;;4997585;28;20568;-43
2024/04/05 14:23:53;;;;;;;2.38;1.05;;;;;;;;;;4995736;28;20216;-43
2024/04/05 14:26:19;;;;;;;2.97;1.10;;;;;;;;;;4995781;28;20719;-43
2024/04/05 14:28:45;;;;;;;3.22;1.00;;;;;;;;;;4999977;28;20184;-43
2024/04/05 14:31:11;;;;;;;3.13;0.95;;;;;;;;;;5005401;28;20179;-43
2024/04/05 14:33:38;;;;;;;3.17;1.23;;;;;;;;;;4997863;28;20217;-43
2024/04/05 14:36:08;;;;;;;3.72;1.10;;;;;;;;;;4995888;28;20700;-43
2024/04/05 14:38:34;;;;;;;0.73;0.70;;;;;;;;;;4996029;28;20177;-43